Pensacola, FL (32526)

1:11 AM CDT on March 27, 2015 (GMT -0500)
Saufley Field | | Change Station
CLOSE
Current Station
Personal Weather Station
Location: Pensacola, FL
Elevation: 65 ft
Nearby Weather Stations

Elev 65 ft 30.46 °N, 87.34 °W | Updated 1 minute ago

Mostly Cloudy
Mostly Cloudy
64.4 °F
Feels Like 64.4 °F
N
0.0
Wind Variable Wind from NW
Gusts 1.0 mph

Today
High -- | Low -- °F
--% Chance of Precip.
Yesterday
High -- | Low -- °F
Precip. -- in
6:44 AM 7:05 PM
Waxing Crescent, 49% visible
Pressure 29.84 in
Visibility 10.0 miles
Clouds Mostly Cloudy 900 ft
Mostly Cloudy 1700 ft
Dew Point 64 °F
Humidity 100%
Rainfall 0.18 in
Snow Depth Not available.
UV 0 out of 12
Pollen 8.30 out of 12
Air Quality Not available.
Flu Activity Not available.
METAR KPNS 270553Z AUTO 27007KT 10SM BKN009 BKN017 18/17 A2983 RMK AO2 CIG 006V011 SLP104 60000 T01830172 10194 20183 402170183 56001

More Conditions Fewer Conditions

Pressure 29.84 in
Visibility 10.0 miles
Clouds Mostly Cloudy 900 ft
Mostly Cloudy 1700 ft
Dew Point 64 °F
Humidity 100%
Rainfall 0.18 in
Snow Depth Not available.
UV 0 out of 12
Pollen 8.30 out of 12
Air Quality Not available.
Flu Activity Not available.
METAR KPNS 270553Z AUTO 27007KT 10SM BKN009 BKN017 18/17 A2983 RMK AO2 CIG 006V011 SLP104 60000 T01830172 10194 20183 402170183 56001

More Conditions Fewer Conditions

10-Day Weather Forecast

Almanac

Astronomy

Mar. 27, 2015 Rise Set
Actual Time
Civil Twilight
Nautical Twilight
Astronomical Twilight
Moon
Length of Visible Light
Length of Day
Tomorrow will be .
, % of the Moon is Illuminated

Today's Extremes

State Highs State Lows

Community

WunderPhotos

Upload Photos

1,808,700 photos uploaded!

WunderBlogs® & News

Nearby

Air Quality

  Air Quality AQ Index Pollutant
Not available.

Snow Depth

Station Depth Elevation

Earthquake Activity

City Distance Mag. Time & Date
Minimum magnitude displayed is 2.5.

Coastal Water Temperatures

Place Temperature

Stations

Nearby Weather Stations

Station Location Temp. Windchill Dew Point Humidity Wind Precip. Elev Updated Type